createdAt,value
2022-12-06T00:01:21.751Z,4.18
2022-12-06T00:04:12.139Z,4.04
2022-12-06T00:07:00.106Z,4.15
2022-12-06T00:09:47.798Z,3.90
2022-12-06T00:12:35.498Z,4.13
2022-12-06T00:15:23.154Z,4.11
2022-12-06T00:18:10.672Z,3.96
2022-12-06T00:21:14.242Z,4.07
2022-12-06T00:24:07.956Z,3.93
2022-12-06T00:26:55.728Z,3.90
2022-12-06T00:29:43.410Z,4.10
2022-12-06T00:32:32.124Z,4.16
2022-12-06T00:35:19.732Z,4.21
2022-12-06T00:38:07.375Z,4.14
2022-12-06T00:41:04.302Z,4.05
2022-12-06T00:43:53.038Z,4.20
2022-12-06T00:46:40.915Z,4.19
2022-12-06T00:49:28.638Z,4.20
2022-12-06T00:52:16.105Z,4.21
2022-12-06T00:55:04.029Z,4.17
2022-12-06T00:57:51.738Z,4.05
2022-12-06T01:00:40.025Z,3.91
2022-12-06T01:03:32.105Z,3.99
2022-12-06T01:06:28.330Z,3.96
2022-12-06T01:09:15.881Z,4.12
2022-12-06T01:12:03.584Z,4.05
2022-12-06T01:14:51.230Z,4.09
2022-12-06T01:17:38.870Z,4.25
2022-12-06T01:20:26.626Z,4.08
2022-12-06T01:23:15.097Z,4.17
2022-12-06T01:26:04.403Z,4.16
2022-12-06T01:28:52.962Z,4.08
2022-12-06T01:31:40.674Z,4.12
2022-12-06T01:34:28.308Z,4.18
2022-12-06T01:37:16.007Z,4.03
2022-12-06T01:40:04.017Z,3.99
2022-12-06T01:42:51.662Z,4.06
2022-12-06T01:46:16.985Z,4.12
2022-12-06T01:49:13.688Z,4.08
2022-12-06T01:52:06.288Z,4.09
2022-12-06T01:54:54.633Z,3.91
2022-12-06T01:57:42.537Z,3.92
2022-12-06T02:00:30.288Z,3.81
2022-12-06T02:03:24.659Z,3.60
2022-12-06T02:06:12.781Z,3.87
2022-12-06T02:09:03.894Z,4.05
2022-12-06T02:11:51.445Z,3.96
2022-12-06T02:14:39.918Z,4.06
2022-12-06T02:17:36.458Z,4.11
2022-12-06T02:20:36.447Z,4.08
2022-12-06T02:23:45.307Z,4.07
2022-12-06T02:26:38.608Z,4.05
2022-12-06T02:29:32.537Z,4.14
2022-12-06T02:32:32.320Z,4.16
2022-12-06T02:35:40.959Z,4.13
2022-12-06T02:39:05.780Z,4.13
2022-12-06T02:42:19.656Z,4.10
2022-12-06T02:45:14.713Z,3.89
2022-12-06T02:48:10.559Z,3.98
2022-12-06T02:51:03.073Z,4.05
2022-12-06T02:53:53.258Z,4.06
2022-12-06T02:56:40.831Z,4.09
2022-12-06T02:59:28.553Z,4.06
2022-12-06T03:02:16.362Z,3.93
2022-12-06T03:05:08.297Z,4.02
2022-12-06T03:07:58.076Z,4.05
2022-12-06T03:10:56.255Z,3.97
2022-12-06T03:14:14.486Z,4.16
2022-12-06T03:17:15.607Z,4.04
2022-12-06T03:20:30.850Z,4.04
2022-12-06T03:23:24.131Z,4.06
2022-12-06T03:26:16.232Z,4.04
2022-12-06T03:29:07.207Z,3.99
2022-12-06T03:31:57.948Z,3.91
2022-12-06T03:34:50.883Z,3.91
2022-12-06T03:37:41.515Z,3.92
2022-12-06T03:40:34.776Z,3.98
2022-12-06T03:43:22.777Z,3.84
2022-12-06T03:46:17.883Z,3.89
2022-12-06T03:49:12.656Z,4.00
2022-12-06T03:52:00.438Z,4.03
2022-12-06T03:54:48.231Z,3.99
2022-12-06T03:57:36.049Z,4.03
2022-12-06T04:00:23.682Z,4.08
2022-12-06T04:03:11.305Z,4.03
2022-12-06T04:06:01.463Z,3.93
2022-12-06T04:08:49.240Z,4.04
2022-12-06T04:11:36.841Z,4.05
2022-12-06T04:14:32.523Z,4.00
2022-12-06T04:17:38.381Z,4.12
2022-12-06T04:20:27.649Z,4.04
2022-12-06T04:23:15.358Z,4.04
2022-12-06T04:26:05.079Z,3.90
2022-12-06T04:29:12.315Z,3.86
2022-12-06T04:32:18.476Z,4.05
2022-12-06T04:35:24.573Z,4.00
2022-12-06T04:38:30.432Z,3.90
2022-12-06T04:41:37.980Z,3.91
2022-12-06T04:44:25.551Z,4.01
2022-12-06T04:47:13.598Z,4.01
2022-12-06T04:50:01.436Z,3.91
2022-12-06T04:52:49.490Z,4.06
2022-12-06T04:55:37.188Z,3.98
2022-12-06T04:58:24.966Z,4.03
2022-12-06T05:01:12.812Z,3.81
2022-12-06T05:04:00.570Z,3.96
2022-12-06T05:06:51.462Z,3.95
2022-12-06T05:09:40.617Z,3.88
2022-12-06T05:12:28.504Z,3.92
2022-12-06T05:15:16.333Z,3.78
2022-12-06T05:18:04.207Z,3.91
2022-12-06T05:20:52.215Z,3.89
2022-12-06T05:23:39.954Z,3.90
2022-12-06T05:26:29.573Z,4.06
2022-12-06T05:29:17.826Z,4.09
2022-12-06T05:32:05.738Z,4.00
2022-12-06T05:34:53.315Z,3.89
2022-12-06T05:37:41.018Z,3.92
2022-12-06T05:40:28.734Z,3.97
2022-12-06T05:43:17.182Z,4.00
2022-12-06T05:46:05.136Z,3.93
2022-12-06T05:48:52.818Z,4.07
2022-12-06T05:51:40.719Z,4.06
2022-12-06T05:54:28.423Z,3.95
2022-12-06T05:57:16.173Z,4.04
2022-12-06T06:00:05.553Z,3.86
2022-12-06T06:02:54.210Z,3.90
2022-12-06T06:05:56.309Z,4.11
2022-12-06T06:08:43.906Z,3.89
2022-12-06T06:11:31.525Z,3.95
2022-12-06T06:14:19.355Z,4.08
2022-12-06T06:17:07.673Z,3.82
2022-12-06T06:19:55.212Z,4.03
2022-12-06T06:22:42.894Z,4.11
2022-12-06T06:25:30.742Z,4.13
2022-12-06T06:28:19.199Z,4.07
2022-12-06T06:31:07.364Z,4.17
2022-12-06T06:33:55.013Z,4.21
2022-12-06T06:36:45.856Z,4.10
2022-12-06T06:39:33.910Z,4.35
2022-12-06T06:42:21.689Z,4.21
2022-12-06T06:45:09.836Z,4.31
2022-12-06T06:47:57.400Z,4.26
2022-12-06T06:50:45.454Z,4.35
2022-12-06T06:53:33.643Z,4.26
2022-12-06T06:56:21.346Z,3.95
2022-12-06T06:59:09.022Z,4.31
2022-12-06T07:01:56.890Z,4.40
2022-12-06T07:04:45.338Z,4.33
2022-12-06T07:07:35.488Z,4.31
2022-12-06T07:10:25.594Z,4.34
2022-12-06T07:13:13.305Z,4.41
2022-12-06T07:16:04.428Z,4.45
2022-12-06T07:18:52.093Z,4.41
2022-12-06T07:21:40.121Z,4.41
2022-12-06T07:24:27.756Z,4.31
2022-12-06T07:27:15.952Z,4.36
2022-12-06T07:30:05.961Z,4.58
2022-12-06T07:32:54.220Z,4.73
2022-12-06T07:36:10.880Z,4.72
2022-12-06T07:38:53.316Z,4.74
2022-12-06T07:41:59.435Z,4.13
2022-12-06T07:45:03.136Z,4.77
2022-12-06T07:47:50.970Z,4.80
2022-12-06T07:50:38.572Z,4.60
2022-12-06T07:53:26.281Z,4.72
2022-12-06T07:56:13.921Z,4.78
2022-12-06T07:59:02.495Z,4.80
2022-12-06T08:01:52.411Z,4.72
2022-12-06T08:04:40.096Z,4.83
2022-12-06T08:07:28.207Z,4.88
2022-12-06T08:10:15.922Z,4.74
2022-12-06T08:13:04.207Z,4.69
2022-12-06T08:15:51.936Z,5.10
2022-12-06T08:18:41.283Z,5.15
2022-12-06T08:21:29.218Z,4.96
2022-12-06T08:24:16.861Z,5.16
2022-12-06T08:27:05.171Z,5.00
2022-12-06T08:29:52.955Z,5.16
2022-12-06T08:32:40.706Z,5.35
2022-12-06T08:35:28.380Z,5.29
2022-12-06T08:38:16.823Z,5.35
2022-12-06T08:41:05.761Z,5.37
2022-12-06T08:43:53.600Z,5.48
2022-12-06T08:46:41.682Z,5.49
2022-12-06T08:49:30.447Z,5.51
2022-12-06T08:52:18.382Z,5.37
2022-12-06T08:55:06.542Z,5.43
2022-12-06T08:57:54.625Z,5.50
2022-12-06T09:00:42.260Z,5.50
2022-12-06T09:03:29.835Z,5.55
2022-12-06T09:06:18.813Z,5.49
2022-12-06T09:09:07.169Z,5.51
2022-12-06T09:11:54.882Z,5.60
2022-12-06T09:14:42.549Z,5.52
2022-12-06T09:17:30.263Z,5.47
2022-12-06T09:20:18.543Z,5.49
2022-12-06T09:23:06.312Z,5.34
2022-12-06T09:25:54.131Z,5.27
2022-12-06T09:28:43.324Z,5.28
2022-12-06T09:31:31.622Z,5.29
2022-12-06T09:34:19.271Z,5.42
2022-12-06T09:37:13.417Z,5.40
2022-12-06T09:40:12.112Z,5.44
2022-12-06T09:43:02.566Z,5.31
2022-12-06T09:46:05.975Z,5.37
2022-12-06T09:48:56.465Z,5.13
2022-12-06T09:52:02.668Z,5.42
2022-12-06T09:55:05.903Z,5.43
2022-12-06T09:58:11.665Z,5.59
2022-12-06T10:01:19.909Z,5.45
2022-12-06T10:04:28.628Z,5.65
2022-12-06T10:07:40.761Z,5.61
2022-12-06T10:10:47.101Z,5.81
2022-12-06T10:13:46.469Z,5.74
2022-12-06T10:17:08.718Z,6.02
2022-12-06T10:20:06.163Z,6.04
2022-12-06T10:23:08.876Z,6.28
2022-12-06T10:26:06.135Z,6.32
2022-12-06T10:29:09.792Z,6.30
2022-12-06T10:32:03.481Z,6.22
2022-12-06T10:35:05.417Z,6.17
2022-12-06T10:38:16.125Z,6.11
2022-12-06T10:41:27.227Z,6.05
2022-12-06T10:44:27.020Z,5.95
2022-12-06T10:47:17.200Z,5.89
2022-12-06T10:50:29.144Z,6.04
2022-12-06T10:53:21.127Z,6.13
2022-12-06T10:56:21.336Z,6.19
2022-12-06T10:59:27.371Z,6.19
2022-12-06T11:02:41.886Z,5.99
2022-12-06T11:05:42.496Z,5.99
2022-12-06T11:08:47.074Z,6.03
2022-12-06T11:11:37.028Z,6.08
2022-12-06T11:14:33.233Z,5.87
2022-12-06T11:17:29.964Z,6.05
2022-12-06T11:20:28.731Z,5.87
2022-12-06T11:23:32.479Z,5.84
2022-12-06T11:26:34.366Z,5.94
2022-12-06T11:29:22.744Z,6.02
2022-12-06T11:32:14.481Z,5.98
2022-12-06T11:35:02.303Z,5.93
2022-12-06T11:37:56.489Z,6.08
2022-12-06T11:40:47.120Z,6.27
2022-12-06T11:43:36.205Z,5.98
2022-12-06T11:46:24.783Z,6.15
2022-12-06T11:49:21.123Z,6.30
2022-12-06T11:52:18.815Z,6.15
2022-12-06T11:55:16.879Z,6.00
2022-12-06T11:58:13.780Z,5.97
2022-12-06T12:01:03.359Z,6.05
2022-12-06T12:03:51.067Z,5.97
2022-12-06T12:06:38.869Z,5.81
2022-12-06T12:09:30.739Z,5.75
2022-12-06T12:12:59.400Z,5.85
2022-12-06T12:15:53.760Z,5.78
2022-12-06T12:19:00.624Z,5.87
2022-12-06T12:21:53.869Z,5.91
2022-12-06T12:25:17.937Z,5.85
2022-12-06T12:27:59.378Z,5.80
2022-12-06T12:30:54.974Z,5.79
2022-12-06T12:33:42.695Z,5.85
2022-12-06T12:36:30.376Z,5.71
2022-12-06T12:39:38.938Z,5.82
2022-12-06T12:42:40.250Z,5.91
2022-12-06T12:45:28.292Z,5.80
2022-12-06T12:48:27.377Z,5.78
2022-12-06T12:51:28.562Z,5.81
2022-12-06T12:54:27.501Z,5.69
2022-12-06T12:57:15.303Z,5.89
2022-12-06T13:00:03.235Z,5.88
2022-12-06T13:03:07.813Z,5.91
2022-12-06T13:06:02.621Z,5.88
2022-12-06T13:08:50.352Z,5.81
2022-12-06T13:11:46.982Z,5.83
2022-12-06T13:14:37.679Z,5.81
2022-12-06T13:17:29.397Z,5.69
2022-12-06T13:20:26.779Z,5.84
2022-12-06T13:23:20.586Z,5.84
2022-12-06T13:26:29.080Z,5.86
2022-12-06T13:29:47.322Z,5.94
2022-12-06T13:32:46.101Z,5.78
2022-12-06T13:36:11.975Z,5.94
2022-12-06T13:39:00.034Z,5.93
2022-12-06T13:42:16.543Z,5.94
2022-12-06T13:45:07.327Z,5.91
2022-12-06T13:47:54.969Z,5.83
2022-12-06T13:50:42.511Z,5.73
2022-12-06T13:53:36.040Z,5.62
2022-12-06T13:56:41.268Z,5.67
2022-12-06T13:59:38.416Z,5.81
2022-12-06T14:02:46.717Z,5.75
2022-12-06T14:08:57.440Z,5.75
2022-12-06T14:11:45.367Z,5.66
2022-12-06T14:14:33.084Z,5.67
2022-12-06T14:17:52.593Z,5.45
2022-12-06T14:20:31.261Z,5.55
2022-12-06T14:23:29.280Z,5.56
2022-12-06T14:26:23.652Z,5.46
2022-12-06T14:29:26.779Z,5.41
2022-12-06T14:32:17.718Z,5.51
2022-12-06T14:35:13.118Z,5.42
2022-12-06T14:38:03.499Z,5.29
2022-12-06T14:41:10.970Z,5.36
2022-12-06T14:43:58.605Z,5.38
2022-12-06T14:46:48.434Z,5.43
2022-12-06T14:49:55.223Z,5.37
2022-12-06T14:53:16.767Z,5.52
2022-12-06T14:56:29.510Z,5.48
2022-12-06T14:59:39.048Z,5.35
2022-12-06T15:02:29.370Z,5.50
2022-12-06T15:05:37.685Z,5.51
2022-12-06T15:08:28.132Z,5.47
2022-12-06T15:11:38.507Z,5.32
2022-12-06T15:14:45.807Z,5.43
2022-12-06T15:17:33.404Z,5.28
2022-12-06T15:20:21.185Z,5.34
2022-12-06T15:23:41.147Z,5.30
2022-12-06T15:26:28.775Z,5.20
2022-12-06T15:29:17.313Z,5.15
2022-12-06T15:32:02.055Z,5.26
2022-12-06T15:34:50.995Z,5.23
2022-12-06T15:37:40.742Z,5.22
2022-12-06T15:40:29.754Z,5.23
2022-12-06T15:43:34.159Z,5.32
2022-12-06T15:46:27.605Z,5.31
2022-12-06T15:49:27.691Z,5.14
2022-12-06T15:52:24.762Z,4.99
2022-12-06T15:55:19.985Z,5.01
2022-12-06T15:58:07.701Z,5.12
2022-12-06T16:00:56.484Z,5.21
2022-12-06T16:03:44.362Z,5.17
2022-12-06T16:06:32.373Z,5.07
2022-12-06T16:09:22.172Z,5.12
2022-12-06T16:12:10.513Z,5.10
2022-12-06T16:14:58.251Z,5.03
2022-12-06T16:17:46.252Z,5.15
2022-12-06T16:20:34.099Z,5.04
2022-12-06T16:26:54.883Z,4.93
2022-12-06T16:29:42.521Z,5.11
2022-12-06T16:32:30.283Z,5.08
2022-12-06T16:35:18.136Z,5.07
2022-12-06T16:38:09.780Z,4.91
2022-12-06T16:41:02.213Z,4.99
2022-12-06T16:43:52.749Z,4.91
2022-12-06T16:46:43.979Z,5.08
2022-12-06T16:49:48.734Z,5.07
2022-12-06T16:52:36.961Z,4.98
2022-12-06T16:55:26.743Z,4.91
2022-12-06T16:58:17.041Z,4.61
2022-12-06T17:01:15.542Z,4.96
2022-12-06T17:04:11.516Z,4.92
2022-12-06T17:06:59.329Z,4.77
2022-12-06T17:09:54.325Z,5.00
2022-12-06T17:12:43.615Z,4.92
2022-12-06T17:15:31.376Z,4.87
2022-12-06T17:18:18.982Z,4.90
2022-12-06T17:21:07.857Z,4.89
2022-12-06T17:24:01.316Z,4.92
2022-12-06T17:26:49.244Z,4.90
2022-12-06T17:29:39.249Z,4.92
2022-12-06T17:32:28.462Z,4.91
2022-12-06T17:35:16.095Z,4.68
2022-12-06T17:41:32.773Z,4.91
2022-12-06T17:44:24.334Z,4.85
2022-12-06T17:47:12.498Z,4.84
2022-12-06T17:50:00.774Z,4.91
2022-12-06T17:52:51.632Z,4.91
2022-12-06T17:55:41.760Z,4.78
2022-12-06T17:58:30.160Z,4.81
2022-12-06T18:01:19.065Z,4.92
2022-12-06T18:04:14.593Z,4.93
2022-12-06T18:07:05.495Z,4.88
2022-12-06T18:09:58.520Z,4.84
2022-12-06T18:12:52.362Z,4.47
2022-12-06T18:15:43.942Z,4.60
2022-12-06T18:18:34.325Z,4.75
2022-12-06T18:21:22.415Z,4.85
2022-12-06T18:24:21.993Z,4.88
2022-12-06T18:27:19.224Z,4.79
2022-12-06T18:30:07.835Z,4.88
2022-12-06T18:32:55.450Z,4.63
2022-12-06T18:35:43.316Z,4.71
2022-12-06T18:38:31.800Z,4.88
2022-12-06T18:41:21.820Z,4.89
2022-12-06T18:44:10.590Z,4.89
2022-12-06T18:46:58.296Z,4.77
2022-12-06T18:49:45.866Z,4.79
2022-12-06T18:52:35.381Z,4.93
2022-12-06T18:55:23.447Z,4.92
2022-12-06T18:58:13.667Z,4.94
2022-12-06T19:01:05.277Z,4.73
2022-12-06T19:03:53.067Z,4.86
2022-12-06T19:06:43.375Z,4.78
2022-12-06T19:09:33.396Z,4.84
2022-12-06T19:12:26.340Z,4.97
2022-12-06T19:15:14.352Z,4.91
2022-12-06T19:18:02.107Z,4.94
2022-12-06T19:20:51.658Z,4.89
2022-12-06T19:23:41.900Z,4.91
2022-12-06T19:26:30.340Z,4.76
2022-12-06T19:29:18.950Z,4.89
2022-12-06T19:32:06.728Z,4.92
2022-12-06T19:34:56.334Z,5.00
2022-12-06T19:37:44.040Z,4.94
2022-12-06T19:40:31.942Z,4.97
2022-12-06T19:43:45.407Z,4.85
2022-12-06T19:46:33.471Z,4.96
2022-12-06T19:49:23.815Z,4.97
2022-12-06T19:52:11.776Z,4.86
2022-12-06T19:54:59.412Z,4.96
2022-12-06T19:57:48.767Z,4.98
2022-12-06T20:00:38.535Z,4.91
2022-12-06T20:03:26.685Z,4.97
2022-12-06T20:06:20.260Z,4.98
2022-12-06T20:09:08.203Z,4.98
2022-12-06T20:12:03.482Z,4.99
2022-12-06T20:14:56.726Z,5.01
2022-12-06T20:17:44.259Z,5.00
2022-12-06T20:20:31.840Z,5.01
2022-12-06T20:23:19.714Z,4.98
2022-12-06T20:26:09.652Z,4.94
2022-12-06T20:29:04.953Z,4.92
2022-12-06T20:31:54.893Z,4.90
2022-12-06T20:34:42.640Z,4.90
2022-12-06T20:37:30.257Z,4.89
2022-12-06T20:40:18.320Z,4.96
2022-12-06T20:43:05.984Z,4.98
2022-12-06T20:45:53.637Z,5.04
2022-12-06T20:48:42.534Z,5.04
2022-12-06T20:51:31.732Z,5.00
2022-12-06T20:54:19.496Z,4.90
2022-12-06T20:57:08.714Z,4.94
2022-12-06T20:59:56.354Z,4.97
2022-12-06T21:02:44.071Z,4.97
2022-12-06T21:05:31.750Z,4.92
2022-12-06T21:08:19.589Z,4.82
2022-12-06T21:11:24.241Z,4.88
2022-12-06T21:14:14.311Z,4.82
2022-12-06T21:17:01.842Z,4.80
2022-12-06T21:19:52.095Z,4.81
2022-12-06T21:22:39.712Z,4.75
2022-12-06T21:25:28.169Z,4.89
2022-12-06T21:28:28.694Z,4.89
2022-12-06T21:31:16.438Z,4.89
2022-12-06T21:34:04.526Z,4.92
2022-12-06T21:36:52.372Z,4.88
2022-12-06T21:39:39.926Z,4.85
2022-12-06T21:42:27.639Z,4.78
2022-12-06T21:45:15.342Z,4.68
2022-12-06T21:48:03.122Z,4.82
2022-12-06T21:50:50.744Z,4.67
2022-12-06T21:53:39.342Z,4.69
2022-12-06T21:56:29.869Z,4.71
2022-12-06T21:59:17.564Z,4.78
2022-12-06T22:02:05.281Z,4.67
2022-12-06T22:04:53.070Z,4.51
2022-12-06T22:07:40.819Z,4.70
2022-12-06T22:10:28.610Z,4.50
2022-12-06T22:13:16.203Z,4.69
2022-12-06T22:16:06.741Z,4.66
2022-12-06T22:18:55.455Z,4.75
2022-12-06T22:21:43.276Z,4.65
2022-12-06T22:24:30.840Z,4.52
2022-12-06T22:27:18.527Z,4.58
2022-12-06T22:30:06.877Z,4.59
2022-12-06T22:32:54.609Z,4.55
2022-12-06T22:35:42.468Z,4.75
2022-12-06T22:38:30.556Z,4.49
2022-12-06T22:41:19.663Z,4.74
2022-12-06T22:44:07.606Z,4.74
2022-12-06T22:46:55.269Z,4.82
2022-12-06T22:49:43.579Z,4.66
2022-12-06T22:52:31.232Z,4.60
2022-12-06T22:55:19.015Z,4.65
2022-12-06T22:58:06.712Z,4.59
2022-12-06T23:00:54.486Z,4.67
2022-12-06T23:03:42.548Z,4.59
2022-12-06T23:06:30.876Z,4.65
2022-12-06T23:09:18.473Z,4.69
2022-12-06T23:12:06.844Z,4.76
2022-12-06T23:14:54.558Z,4.80
2022-12-06T23:17:42.325Z,4.80
2022-12-06T23:20:30.041Z,4.74
2022-12-06T23:23:20.014Z,4.86
2022-12-06T23:26:10.960Z,4.89
2022-12-06T23:29:01.303Z,4.84
2022-12-06T23:31:49.237Z,4.80
2022-12-06T23:34:38.094Z,4.78
2022-12-06T23:37:25.726Z,4.74
2022-12-06T23:40:13.471Z,4.63
2022-12-06T23:43:01.053Z,4.80
2022-12-06T23:45:58.482Z,4.65
2022-12-06T23:48:48.070Z,4.71
2022-12-06T23:51:38.779Z,4.69
2022-12-06T23:54:26.324Z,4.59
2022-12-06T23:57:15.226Z,4.78
